Time;durP1;ratioP1;P1;durP2;ratioP2;P2;SDS_P1;SDS_P2;PMS_P1;PMS_P2;Temp;Humidity;BMP_temperature;BMP_pressure;BME280_temperature;BME280_humidity;BME280_pressure;Samples;Min_cycle;Max_cycle;Signal;HPM_P1;HPM_P2
2021/05/30 00:01:09;;;;;;;5.10;3.67;;;9.80;50.70;;;;;;5108249;27;39414;-82
2021/05/30 00:03:39;;;;;;;6.37;4.43;;;9.80;50.80;;;;;;5089199;27;37757;-82
2021/05/30 00:06:06;;;;;;;7.53;4.30;;;9.80;51.00;;;;;;5108007;27;38599;-82
2021/05/30 00:08:34;;;;;;;9.10;3.50;;;9.80;51.10;;;;;;5116452;27;37865;-82
2021/05/30 00:11:01;;;;;;;3.57;2.80;;;9.80;51.50;;;;;;5107049;27;39659;-82
2021/05/30 00:13:28;;;;;;;3.07;2.77;;;9.70;51.50;;;;;;5110119;27;39274;-82
2021/05/30 00:15:55;;;;;;;6.50;2.50;;;9.70;51.50;;;;;;5111720;27;39000;-82
2021/05/30 00:18:22;;;;;;;5.33;2.97;;;9.60;51.50;;;;;;5095184;28;35969;-83
2021/05/30 00:20:50;;;;;;;3.43;2.57;;;9.60;51.60;;;;;;5115353;27;39650;-81
2021/05/30 00:23:17;;;;;;;4.40;2.67;;;9.50;51.60;;;;;;5094262;28;38663;-82
2021/05/30 00:25:52;;;;;;;2.17;1.97;;;9.50;51.60;;;;;;5110278;27;38465;-82
2021/05/30 00:28:19;;;;;;;4.50;3.50;;;9.50;51.90;;;;;;5083339;28;35324;-82
2021/05/30 00:30:46;;;;;;;4.37;3.70;;;9.40;52.10;;;;;;5104009;27;38610;-82
2021/05/30 00:33:15;;;;;;;4.67;3.43;;;9.40;52.30;;;;;;5090928;28;37906;-81
2021/05/30 00:35:42;;;;;;;4.10;3.50;;;9.30;52.40;;;;;;5109989;27;36785;-82
2021/05/30 00:38:58;;;;;;;3.50;3.20;;;9.30;52.50;;;;;;5113633;27;37989;-81
2021/05/30 00:41:39;;;;;;;3.53;3.23;;;9.20;52.60;;;;;;5094720;28;38603;-82
2021/05/30 00:44:23;;;;;;;4.97;3.70;;;9.20;52.60;;;;;;5113245;27;39514;-84
2021/05/30 00:47:12;;;;;;;3.57;3.27;;;9.10;52.80;;;;;;5109738;27;38284;-82
2021/05/30 00:50:19;;;;;;;3.70;3.40;;;9.10;53.00;;;;;;5100906;27;38131;-83
2021/05/30 00:53:15;;;;;;;3.87;3.57;;;9.10;52.90;;;;;;5106710;27;39310;-81
2021/05/30 00:59:58;;;;;;;4.50;3.40;;;9.00;52.90;;;;;;4995536;28;38622;-81
2021/05/30 01:02:42;;;;;;;4.20;2.80;;;9.00;53.10;;;;;;5024160;28;38194;-81
2021/05/30 01:05:11;;;;;;;4.30;3.80;;;9.00;53.10;;;;;;5019629;28;39358;-81
2021/05/30 01:08:26;;;;;;;4.70;3.57;;;8.90;53.40;;;;;;5029745;28;37919;-81
2021/05/30 01:11:52;;;;;;;3.40;3.10;;;8.90;53.40;;;;;;5025173;28;38988;-81
2021/05/30 01:14:20;;;;;;;4.30;3.50;;;9.00;53.50;;;;;;4996834;28;36317;-82
2021/05/30 01:21:37;;;;;;;3.70;2.90;;;8.90;53.40;;;;;;5015240;28;39705;-81
2021/05/30 01:35:23;;;;;;;4.70;3.03;;;8.70;53.90;;;;;;5120610;27;39254;-80
2021/05/30 01:38:00;;;;;;;5.90;4.07;;;8.60;54.00;;;;;;5118703;27;38463;-81
2021/05/30 01:44:50;;;;;;;3.80;3.40;;;8.60;54.10;;;;;;4963006;28;40346;-81
2021/05/30 01:47:45;;;;;;;4.37;3.67;;;8.50;54.10;;;;;;4905944;29;36041;-80
2021/05/30 01:54:03;;;;;;;4.00;3.60;;;8.50;54.30;;;;;;4894764;29;37878;-81
2021/05/30 01:57:01;;;;;;;4.57;3.40;;;8.50;54.40;;;;;;4926651;29;40331;-81
2021/05/30 02:02:38;;;;;;;7.43;3.70;;;8.30;54.50;;;;;;4943392;28;37813;-81
2021/05/30 02:05:10;;;;;;;4.40;3.40;;;8.30;54.60;;;;;;4998981;28;36134;-81
2021/05/30 02:10:46;;;;;;;4.93;3.40;;;8.30;54.90;;;;;;5027601;27;41762;-80
2021/05/30 02:13:14;;;;;;;5.37;3.73;;;8.20;54.70;;;;;;5109688;27;39293;-80
2021/05/30 02:15:58;;;;;;;5.97;3.37;;;8.20;54.80;;;;;;5111988;27;37414;-81
2021/05/30 02:18:28;;;;;;;5.20;3.40;;;8.20;54.90;;;;;;5108962;28;40239;-81
2021/05/30 02:20:55;;;;;;;7.30;3.53;;;8.10;54.90;;;;;;5092577;28;38400;-82
2021/05/30 02:23:29;;;;;;;4.87;3.47;;;8.10;55.00;;;;;;5093189;27;37496;-82
2021/05/30 02:26:06;;;;;;;4.13;3.47;;;8.10;55.00;;;;;;5110553;27;38366;-82
2021/05/30 02:28:34;;;;;;;5.93;3.50;;;8.10;55.00;;;;;;5103122;27;40172;-81
2021/05/30 02:31:03;;;;;;;6.13;4.20;;;8.10;54.90;;;;;;5089965;28;38596;-82
2021/05/30 02:33:31;;;;;;;5.90;4.37;;;8.10;55.00;;;;;;5107912;27;38665;-82
2021/05/30 02:35:58;;;;;;;7.90;4.30;;;8.10;55.20;;;;;;5111272;28;37951;-82
2021/05/30 02:38:25;;;;;;;8.50;4.83;;;8.10;54.90;;;;;;5112060;28;39403;-80
2021/05/30 02:40:52;;;;;;;8.90;5.47;;;8.10;55.10;;;;;;5094297;28;37741;-79
2021/05/30 02:43:21;;;;;;;11.73;5.90;;;8.00;55.20;;;;;;5100257;28;39194;-80
2021/05/30 02:45:48;;;;;;;9.47;4.73;;;8.00;55.20;;;;;;5113283;28;37100;-79
2021/05/30 02:48:16;;;;;;;11.17;6.00;;;8.00;55.10;;;;;;5106575;27;40859;-81
2021/05/30 02:50:45;;;;;;;13.60;5.93;;;7.90;55.20;;;;;;5107648;27;38910;-82
2021/05/30 02:53:28;;;;;;;10.77;4.77;;;7.90;55.40;;;;;;5093445;28;37449;-82
2021/05/30 02:55:56;;;;;;;10.70;5.20;;;7.90;55.60;;;;;;5090196;28;35945;-82
2021/05/30 02:58:26;;;;;;;6.30;4.50;;;7.90;55.60;;;;;;5111067;27;39692;-82
2021/05/30 03:00:54;;;;;;;4.13;3.10;;;7.90;55.70;;;;;;5110320;27;39434;-82
2021/05/30 03:03:21;;;;;;;6.47;3.47;;;7.90;55.70;;;;;;5112961;28;37959;-82
2021/05/30 03:05:49;;;;;;;4.50;3.30;;;7.80;55.70;;;;;;5112276;27;37135;-81
2021/05/30 03:08:16;;;;;;;5.10;3.43;;;7.80;55.70;;;;;;5084241;27;40161;-82
2021/05/30 03:10:43;;;;;;;3.93;3.40;;;7.80;55.90;;;;;;5113069;28;40085;-82
2021/05/30 03:13:10;;;;;;;4.87;3.10;;;7.80;56.00;;;;;;5093611;28;37512;-81
2021/05/30 03:15:38;;;;;;;4.03;3.40;;;7.80;56.10;;;;;;5110617;27;37353;-81
2021/05/30 03:18:06;;;;;;;3.43;2.83;;;7.80;56.10;;;;;;5111130;27;40469;-82
2021/05/30 03:20:33;;;;;;;3.10;2.80;;;7.80;55.80;;;;;;5112133;27;39546;-81
2021/05/30 03:23:03;;;;;;;4.63;3.27;;;7.70;55.60;;;;;;5112224;28;38478;-82
2021/05/30 03:25:30;;;;;;;4.20;3.47;;;7.80;55.70;;;;;;5084335;27;36527;-82
2021/05/30 03:27:57;;;;;;;5.50;3.77;;;7.80;55.50;;;;;;5113318;27;39246;-81
2021/05/30 03:30:24;;;;;;;4.30;3.30;;;7.80;55.50;;;;;;5113501;28;40057;-81
2021/05/30 03:32:51;;;;;;;4.20;3.53;;;7.80;55.60;;;;;;5108467;27;39658;-81
2021/05/30 03:35:18;;;;;;;4.40;4.00;;;7.80;55.60;;;;;;5093868;27;36454;-81
2021/05/30 03:37:46;;;;;;;3.73;3.30;;;7.80;55.60;;;;;;5092222;28;38077;-81
2021/05/30 03:40:26;;;;;;;4.80;3.57;;;7.90;55.50;;;;;;5111736;28;39923;-82
2021/05/30 03:42:54;;;;;;;3.77;3.00;;;7.90;55.40;;;;;;5106783;27;38126;-82
2021/05/30 03:45:22;;;;;;;3.73;3.20;;;7.90;55.40;;;;;;5111175;27;37235;-81
2021/05/30 03:47:49;;;;;;;4.27;3.87;;;7.90;55.60;;;;;;5112878;28;40549;-83
2021/05/30 03:50:17;;;;;;;5.07;3.40;;;7.90;55.60;;;;;;5112503;27;38839;-81
2021/05/30 03:52:44;;;;;;;3.57;2.90;;;7.90;55.50;;;;;;5081136;28;37874;-81
2021/05/30 03:55:13;;;;;;;4.00;3.60;;;7.90;55.50;;;;;;5093899;28;36033;-82
2021/05/30 03:57:43;;;;;;;4.30;3.70;;;7.90;55.50;;;;;;5112382;28;40423;-81
2021/05/30 04:00:12;;;;;;;4.60;4.20;;;8.00;55.40;;;;;;5113818;27;39908;-82
2021/05/30 04:02:40;;;;;;;4.70;4.00;;;8.00;55.40;;;;;;5113405;27;38635;-82
2021/05/30 04:05:07;;;;;;;4.93;4.37;;;8.10;55.30;;;;;;5113997;28;36855;-82
2021/05/30 04:07:36;;;;;;;4.60;3.67;;;8.10;55.30;;;;;;5109801;28;39695;-81
2021/05/30 04:10:07;;;;;;;4.03;3.63;;;8.20;55.20;;;;;;5113185;28;39695;-82
2021/05/30 04:12:34;;;;;;;4.87;3.83;;;8.20;55.10;;;;;;5083150;28;37885;-81
2021/05/30 04:15:02;;;;;;;5.60;4.07;;;8.30;55.10;;;;;;5089882;28;35973;-81
2021/05/30 04:17:29;;;;;;;7.17;4.10;;;8.30;55.10;;;;;;5112210;28;39657;-81
2021/05/30 04:19:56;;;;;;;4.40;4.00;;;8.40;54.80;;;;;;5110289;27;39811;-82
2021/05/30 04:22:23;;;;;;;4.60;4.03;;;8.50;54.60;;;;;;5093806;27;37384;-82
2021/05/30 04:24:51;;;;;;;4.07;3.67;;;8.50;54.40;;;;;;5111374;27;37398;-82
2021/05/30 04:27:18;;;;;;;4.10;3.70;;;8.60;54.40;;;;;;5109159;27;39155;-81
2021/05/30 04:29:45;;;;;;;14.37;3.80;;;8.70;54.20;;;;;;5091961;28;37661;-81
2021/05/30 04:32:13;;;;;;;4.43;4.03;;;8.80;54.20;;;;;;5092873;28;37153;-82
2021/05/30 04:34:40;;;;;;;4.20;3.67;;;8.80;54.10;;;;;;5110865;27;38036;-82
2021/05/30 04:37:07;;;;;;;4.13;3.73;;;8.90;54.00;;;;;;5111284;27;37155;-81
2021/05/30 04:39:34;;;;;;;4.40;3.73;;;9.00;54.00;;;;;;5111036;27;39061;-82
2021/05/30 04:42:02;;;;;;;4.17;3.77;;;9.00;54.00;;;;;;5083669;28;38272;-82
2021/05/30 04:44:30;;;;;;;3.83;3.53;;;9.20;53.80;;;;;;5102888;27;37192;-82
2021/05/30 04:46:57;;;;;;;4.10;3.70;;;9.30;53.80;;;;;;5109919;27;41239;-82
2021/05/30 04:49:25;;;;;;;4.43;3.63;;;9.40;53.80;;;;;;5110467;27;39891;-82
2021/05/30 04:51:52;;;;;;;5.17;4.00;;;9.50;53.60;;;;;;5125238;27;37360;-82
2021/05/30 04:54:19;;;;;;;5.43;3.40;;;9.60;53.10;;;;;;5091394;28;36771;-82
2021/05/30 04:56:46;;;;;;;4.27;3.43;;;9.60;53.20;;;;;;5093866;28;39675;-82
2021/05/30 04:59:14;;;;;;;4.13;3.50;;;9.70;53.10;;;;;;5092726;28;39407;-82
2021/05/30 05:01:41;;;;;;;4.17;3.47;;;9.90;53.00;;;;;;5088014;28;38214;-82
2021/05/30 05:04:08;;;;;;;5.27;3.80;;;10.00;51.90;;;;;;5083548;28;36066;-81
2021/05/30 05:06:39;;;;;;;11.50;4.10;;;10.10;51.70;;;;;;5097936;27;39629;-81
2021/05/30 05:09:08;;;;;;;4.40;4.00;;;10.30;51.50;;;;;;5108713;27;38787;-81
2021/05/30 05:11:35;;;;;;;4.00;3.60;;;10.40;51.00;;;;;;5110757;27;38804;-81
2021/05/30 05:14:03;;;;;;;3.87;3.43;;;10.40;50.80;;;;;;5109734;27;38522;-80
2021/05/30 05:16:30;;;;;;;5.20;3.53;;;10.60;50.60;;;;;;5110888;28;40690;-81
2021/05/30 05:19:00;;;;;;;6.43;3.87;;;10.70;50.00;;;;;;5106972;27;39827;-81
2021/05/30 05:21:27;;;;;;;5.07;3.57;;;10.90;49.90;;;;;;5110825;27;38452;-81
2021/05/30 05:23:55;;;;;;;3.73;3.43;;;11.00;49.30;;;;;;5087697;28;36041;-81
2021/05/30 05:26:22;;;;;;;5.73;3.80;;;11.10;49.00;;;;;;5108223;27;38739;-81
2021/05/30 05:28:50;;;;;;;3.80;3.40;;;11.20;48.30;;;;;;5102823;27;38920;-81
2021/05/30 05:31:17;;;;;;;3.23;2.93;;;11.40;48.00;;;;;;5107550;27;38498;-80
2021/05/30 05:33:44;;;;;;;3.67;3.33;;;11.60;47.50;;;;;;5120551;28;38322;-81
2021/05/30 05:36:12;;;;;;;4.73;3.20;;;11.80;48.10;;;;;;5118473;27;40054;-79
2021/05/30 05:38:39;;;;;;;3.27;2.97;;;12.90;49.00;;;;;;5101272;27;38120;-82
2021/05/30 05:41:07;;;;;;;3.10;2.73;;;15.30;44.80;;;;;;5093426;28;37055;-82
2021/05/30 05:43:34;;;;;;;2.73;2.53;;;18.10;38.50;;;;;;5094777;27;36091;-82
2021/05/30 05:46:01;;;;;;;2.80;2.60;;;21.10;33.80;;;;;;5115690;27;40293;-82
2021/05/30 05:48:28;;;;;;;2.77;2.57;;;23.50;29.20;;;;;;5089485;28;38182;-83
2021/05/30 05:50:58;;;;;;;3.20;2.73;;;25.10;28.00;;;;;;5095231;28;40036;-83
2021/05/30 05:53:25;;;;;;;2.70;2.50;;;26.30;25.90;;;;;;5094788;28;36154;-83
2021/05/30 05:55:52;;;;;;;3.10;2.40;;;27.60;25.10;;;;;;5112820;28;40526;-82
2021/05/30 05:58:19;;;;;;;3.03;2.60;;;29.00;23.30;;;;;;5114393;27;39836;-82
2021/05/30 06:00:47;;;;;;;2.83;2.63;;;29.90;22.20;;;;;;5091512;28;37092;-82
2021/05/30 06:03:14;;;;;;;2.80;2.50;;;29.50;21.70;;;;;;5094197;27;37127;-82
2021/05/30 06:05:41;;;;;;;2.87;2.60;;;30.10;21.10;;;;;;5111846;28;39134;-82
2021/05/30 06:08:08;;;;;;;2.77;2.57;;;30.80;20.70;;;;;;5108559;27;39692;-83
2021/05/30 06:10:35;;;;;;;2.70;2.50;;;31.00;19.90;;;;;;5113049;27;37389;-82
2021/05/30 06:13:09;;;;;;;2.17;2.03;;;31.70;19.50;;;;;;5093765;27;37359;-82
2021/05/30 06:15:38;;;;;;;2.17;2.00;;;31.20;18.90;;;;;;5095899;28;38524;-81
2021/05/30 06:18:09;;;;;;;2.90;2.60;;;31.20;18.90;;;;;;5095412;28;37483;-83
2021/05/30 06:20:36;;;;;;;2.57;2.37;;;30.90;19.20;;;;;;5111604;27;39670;-82
2021/05/30 06:23:04;;;;;;;2.83;2.63;;;31.90;18.80;;;;;;5089746;28;37176;-83
2021/05/30 06:25:31;;;;;;;2.10;2.00;;;32.50;18.00;;;;;;5115727;28;40417;-82
2021/05/30 06:27:59;;;;;;;2.50;2.30;;;32.90;17.50;;;;;;5116383;27;39086;-83
2021/05/30 06:30:28;;;;;;;2.27;2.07;;;32.80;17.50;;;;;;5114718;27;38325;-83
2021/05/30 06:32:58;;;;;;;2.67;2.00;;;32.40;17.30;;;;;;5112985;27;37241;-83
2021/05/30 06:35:28;;;;;;;4.03;2.57;;;32.90;17.20;;;;;;5114589;28;42654;-85
2021/05/30 06:37:55;;;;;;;2.43;2.30;;;33.70;16.70;;;;;;5099515;28;40246;-84
2021/05/30 06:40:22;;;;;;;2.20;2.00;;;34.70;15.70;;;;;;5117663;28;38469;-82
2021/05/30 06:42:49;;;;;;;2.10;1.90;;;35.40;15.40;;;;;;5118573;27;36985;-85
2021/05/30 06:45:17;;;;;;;2.50;2.30;;;35.70;15.20;;;;;;5092309;28;38749;-83
2021/05/30 06:47:44;;;;;;;2.70;2.50;;;35.90;14.80;;;;;;5113710;27;38808;-84
2021/05/30 06:50:12;;;;;;;4.00;2.40;;;36.10;14.40;;;;;;5115303;28;38304;-83
2021/05/30 06:52:40;;;;;;;2.70;2.50;;;35.90;14.10;;;;;;5112400;27;37979;-83
2021/05/30 06:55:08;;;;;;;2.47;2.27;;;36.50;14.20;;;;;;5113794;27;39929;-83
2021/05/30 06:57:35;;;;;;;2.93;2.60;;;37.10;13.50;;;;;;5105496;27;40045;-83
2021/05/30 07:00:04;;;;;;;2.37;2.17;;;36.30;13.00;;;;;;5091437;28;37025;-82
2021/05/30 07:02:31;;;;;;;2.60;2.40;;;36.10;13.80;;;;;;5114082;28;37046;-82
2021/05/30 07:04:58;;;;;;;3.30;2.70;;;35.60;13.40;;;;;;5094557;27;39131;-83
2021/05/30 07:07:26;;;;;;;2.60;2.40;;;34.80;13.80;;;;;;5102324;28;39920;-82
2021/05/30 07:09:53;;;;;;;2.50;2.30;;;35.00;13.50;;;;;;5092924;28;37977;-82
2021/05/30 07:12:20;;;;;;;4.57;2.43;;;35.40;13.70;;;;;;5094482;28;36896;-82
2021/05/30 07:14:47;;;;;;;2.67;2.47;;;35.90;12.80;;;;;;5111294;28;39451;-82
2021/05/30 07:17:16;;;;;;;2.60;2.40;;;36.10;12.80;;;;;;5092075;28;37906;-82
2021/05/30 07:19:46;;;;;;;3.53;2.60;;;35.30;13.20;;;;;;5111194;27;38990;-82
2021/05/30 07:22:15;;;;;;;2.40;2.20;;;34.00;13.40;;;;;;5108606;28;37972;-82
2021/05/30 07:24:43;;;;;;;2.10;2.00;;;34.00;13.80;;;;;;5113100;27;40884;-82
2021/05/30 07:27:11;;;;;;;2.83;2.20;;;34.70;13.40;;;;;;5093196;27;37370;-83
2021/05/30 07:29:38;;;;;;;3.57;2.67;;;35.80;13.60;;;;;;5094663;28;38729;-83
2021/05/30 07:32:07;;;;;;;2.50;2.30;;;36.50;12.30;;;;;;5112596;28;38370;-83
2021/05/30 07:34:34;;;;;;;2.33;2.13;;;36.60;12.20;;;;;;5112157;28;39405;-82
2021/05/30 07:37:01;;;;;;;2.47;1.87;;;35.50;12.60;;;;;;5086686;27;37909;-83
2021/05/30 07:39:28;;;;;;;2.67;2.40;;;35.80;12.80;;;;;;5111611;28;38988;-83
2021/05/30 07:41:56;;;;;;;2.30;2.10;;;36.80;12.10;;;;;;5112867;27;37926;-82
2021/05/30 07:44:23;;;;;;;2.30;2.10;;;37.70;11.80;;;;;;5104561;28;39922;-82
2021/05/30 07:46:52;;;;;;;3.67;2.37;;;38.40;11.20;;;;;;5110988;28;39530;-82
2021/05/30 07:49:19;;;;;;;2.30;2.10;;;37.40;10.80;;;;;;5091100;28;37195;-82
2021/05/30 07:51:46;;;;;;;2.10;1.90;;;36.40;11.20;;;;;;5111123;28;37189;-82
2021/05/30 07:54:14;;;;;;;2.63;2.00;;;35.90;11.60;;;;;;5111129;28;39715;-82
2021/05/30 07:56:41;;;;;;;2.20;2.00;;;35.40;11.10;;;;;;5110778;28;38856;-83
2021/05/30 07:59:10;;;;;;;2.50;1.90;;;35.20;11.30;;;;;;5111798;27;39187;-82
2021/05/30 08:01:37;;;;;;;1.97;1.83;;;34.80;11.60;;;;;;5109253;28;36870;-82
2021/05/30 08:04:05;;;;;;;2.77;2.37;;;34.10;11.90;;;;;;5092762;28;38380;-82
2021/05/30 08:06:34;;;;;;;1.87;1.77;;;33.50;11.80;;;;;;5110720;27;39824;-84
2021/05/30 08:09:02;;;;;;;2.40;2.20;;;33.10;12.40;;;;;;5111940;27;38986;-83
2021/05/30 08:11:30;;;;;;;2.07;1.87;;;33.50;12.10;;;;;;5092088;28;37606;-84
2021/05/30 08:13:59;;;;;;;1.80;1.70;;;34.50;11.10;;;;;;5109378;28;39621;-83
2021/05/30 08:16:27;;;;;;;2.33;1.73;;;34.80;11.00;;;;;;5093376;28;38164;-83
2021/05/30 08:18:54;;;;;;;2.27;2.07;;;34.80;10.70;;;;;;5110854;28;38334;-84
2021/05/30 08:21:21;;;;;;;2.30;2.10;;;35.10;10.10;;;;;;5109957;28;37411;-83
2021/05/30 08:23:49;;;;;;;1.77;1.53;;;35.10;10.00;;;;;;5109840;27;38921;-83
2021/05/30 08:26:17;;;;;;;2.23;1.50;;;35.20;9.30;;;;;;5107394;28;38839;-84
2021/05/30 08:28:44;;;;;;;3.63;1.60;;;34.70;9.60;;;;;;5110047;27;38354;-83
2021/05/30 08:31:12;;;;;;;1.37;1.27;;;34.50;9.60;;;;;;5111476;27;35599;-83
2021/05/30 08:33:39;;;;;;;3.13;1.80;;;34.50;9.90;;;;;;5082783;28;38756;-83
2021/05/30 08:36:07;;;;;;;1.87;1.70;;;34.20;10.60;;;;;;5112748;28;39693;-83
2021/05/30 08:38:36;;;;;;;3.90;1.67;;;35.00;9.70;;;;;;5109105;28;38154;-84
2021/05/30 08:41:03;;;;;;;1.77;1.67;;;36.10;10.00;;;;;;5093466;27;36919;-83
2021/05/30 08:43:30;;;;;;;2.83;1.60;;;36.50;9.40;;;;;;5111018;28;40293;-83
2021/05/30 08:45:57;;;;;;;2.70;2.10;;;36.20;9.40;;;;;;5110325;27;39146;-84
2021/05/30 08:48:24;;;;;;;2.30;2.10;;;36.70;9.90;;;;;;5111411;28;38512;-83
2021/05/30 08:51:04;;;;;;;4.67;2.43;;;37.60;9.50;;;;;;5111586;28;37635;-83
2021/05/30 08:53:35;;;;;;;2.40;2.20;;;35.20;9.60;;;;;;5073417;28;38452;-84
2021/05/30 08:56:03;;;;;;;2.03;1.83;;;31.60;12.50;;;;;;5102336;28;39660;-83
2021/05/30 08:58:34;;;;;;;2.80;2.50;;;30.80;13.00;;;;;;5110005;28;38240;-83
2021/05/30 09:01:12;;;;;;;3.10;2.47;;;32.50;12.80;;;;;;5108920;27;37025;-83
2021/05/30 09:03:54;;;;;;;2.43;2.23;;;34.10;12.50;;;;;;5103996;28;39566;-84
2021/05/30 09:06:23;;;;;;;2.37;2.00;;;35.40;11.30;;;;;;5108741;28;39049;-81
2021/05/30 09:08:51;;;;;;;2.57;2.37;;;35.90;11.30;;;;;;5110000;28;39443;-81
2021/05/30 09:11:38;;;;;;;2.40;2.20;;;35.80;10.50;;;;;;5108677;28;37186;-83
2021/05/30 09:14:08;;;;;;;3.63;2.70;;;35.90;10.30;;;;;;5093734;28;39516;-83
2021/05/30 09:16:58;;;;;;;2.83;2.40;;;32.80;11.60;;;;;;5095952;28;39297;-83
2021/05/30 09:19:43;;;;;;;2.37;2.17;;;31.70;12.90;;;;;;5111656;27;38204;-83
2021/05/30 09:22:24;;;;;;;2.30;2.10;;;30.40;13.70;;;;;;5110306;28;38015;-83
2021/05/30 09:25:13;;;;;;;2.43;2.10;;;29.50;14.40;;;;;;5111421;28;38855;-82
2021/05/30 09:27:50;;;;;;;2.57;1.97;;;30.10;13.50;;;;;;5091297;28;37817;-84
2021/05/30 09:30:23;;;;;;;2.40;2.20;;;29.50;13.60;;;;;;5086959;28;37499;-82
2021/05/30 09:33:03;;;;;;;2.40;2.20;;;28.60;15.00;;;;;;5111374;28;36920;-81
2021/05/30 09:35:48;;;;;;;2.53;2.33;;;27.10;15.40;;;;;;5092071;28;39906;-80
2021/05/30 09:38:18;;;;;;;3.13;1.93;;;25.90;16.80;;;;;;5105345;28;39874;-81
2021/05/30 09:40:47;;;;;;;1.90;1.80;;;26.70;14.70;;;;;;5095983;28;37539;-82
2021/05/30 09:43:15;;;;;;;1.50;1.40;;;26.30;13.80;;;;;;5109132;27;37378;-81
2021/05/30 09:46:00;;;;;;;2.00;1.53;;;25.50;13.60;;;;;;5110335;28;39636;-82
2021/05/30 09:48:28;;;;;;;2.03;1.73;;;24.30;14.60;;;;;;5102520;27;38104;-81
2021/05/30 09:51:05;;;;;;;2.10;1.90;;;24.20;15.50;;;;;;5092317;28;37074;-82
2021/05/30 09:53:35;;;;;;;3.37;2.90;;;23.80;16.20;;;;;;5098420;28;36055;-83
2021/05/30 09:56:02;;;;;;;1.67;1.47;;;22.90;16.90;;;;;;5114357;27;40438;-82
2021/05/30 09:58:29;;;;;;;2.00;1.90;;;22.90;17.10;;;;;;5111377;27;39406;-85
2021/05/30 10:01:03;;;;;;;2.00;1.80;;;24.80;15.90;;;;;;5099094;28;38384;-83
2021/05/30 10:03:31;;;;;;;2.27;1.90;;;25.70;14.40;;;;;;5106912;28;35980;-84
2021/05/30 10:06:00;;;;;;;2.47;1.70;;;27.10;14.30;;;;;;5096236;28;39623;-82
2021/05/30 10:08:31;;;;;;;2.33;2.13;;;28.10;13.00;;;;;;5113872;28;38778;-84
2021/05/30 10:11:02;;;;;;;2.70;1.70;;;28.60;13.40;;;;;;5109524;28;37732;-83
2021/05/30 10:13:29;;;;;;;2.90;1.63;;;29.30;11.70;;;;;;5092132;28;36188;-84
2021/05/30 10:15:59;;;;;;;1.80;1.60;;;30.30;12.60;;;;;;5111891;28;40301;-83
2021/05/30 10:18:29;;;;;;;2.77;1.60;;;31.70;10.90;;;;;;5092765;28;37966;-84
2021/05/30 10:20:57;;;;;;;3.20;1.83;;;32.20;10.60;;;;;;5091337;27;37735;-83
2021/05/30 10:23:25;;;;;;;2.13;1.87;;;33.10;10.40;;;;;;5096061;28;36713;-83
2021/05/30 10:26:14;;;;;;;2.93;2.27;;;33.30;10.40;;;;;;5092803;28;40120;-85
2021/05/30 10:28:48;;;;;;;2.90;1.60;;;33.90;10.00;;;;;;5117416;27;39259;-84
2021/05/30 10:31:25;;;;;;;2.60;2.00;;;34.50;9.30;;;;;;5100254;28;38119;-85
2021/05/30 10:34:13;;;;;;;2.10;1.83;;;34.90;9.50;;;;;;5119797;27;37329;-87
2021/05/30 10:36:41;;;;;;;2.20;2.00;;;35.70;9.60;;;;;;5105117;27;38500;-86
2021/05/30 10:39:33;;;;;;;2.73;1.90;;;35.70;8.90;;;;;;5112556;27;39162;-87
2021/05/30 10:42:16;;;;;;;1.80;1.70;;;34.70;9.00;;;;;;5111133;27;37923;-85
2021/05/30 10:44:51;;;;;;;2.20;2.00;;;34.90;9.80;;;;;;5111698;28;36950;-85
2021/05/30 10:47:19;;;;;;;2.47;2.07;;;34.10;9.00;;;;;;5108944;27;39500;-84
2021/05/30 10:50:06;;;;;;;2.50;2.13;;;33.10;10.00;;;;;;5111809;27;39613;-84
2021/05/30 10:52:40;;;;;;;2.60;1.90;;;31.60;10.80;;;;;;5092922;27;37999;-83
2021/05/30 10:55:20;;;;;;;2.57;2.37;;;29.50;12.50;;;;;;5106593;27;37349;-83
2021/05/30 10:57:50;;;;;;;3.33;2.30;;;28.10;13.80;;;;;;5085036;28;39048;-83
2021/05/30 11:00:52;;;;;;;2.17;1.97;;;28.20;13.80;;;;;;5109046;27;38933;-84
2021/05/30 11:03:19;;;;;;;1.77;1.67;;;27.50;13.70;;;;;;5108904;27;37258;-83
2021/05/30 11:05:48;;;;;;;2.30;2.10;;;26.90;14.70;;;;;;5112374;28;36945;-81
2021/05/30 11:09:06;;;;;;;2.70;1.80;;;27.20;14.40;;;;;;5110636;27;39582;-83
2021/05/30 11:12:12;;;;;;;2.67;1.80;;;26.70;15.60;;;;;;5027219;28;38868;-84
2021/05/30 11:18:04;;;;;;;2.93;2.20;;;26.60;13.90;;;;;;4969644;28;35587;-83
2021/05/30 11:21:15;;;;;;;1.90;1.70;;;25.80;14.70;;;;;;5042266;28;39374;-85
2021/05/30 11:23:42;;;;;;;3.10;2.40;;;25.80;14.60;;;;;;4968555;28;38467;-83
2021/05/30 11:26:17;;;;;;;2.13;1.87;;;25.50;14.70;;;;;;5009689;28;39075;-82
2021/05/30 11:28:47;;;;;;;2.43;2.10;;;24.60;15.40;;;;;;5126843;27;35925;-85
2021/05/30 11:31:21;;;;;;;3.43;2.60;;;24.00;15.80;;;;;;5124231;27;40139;-84
2021/05/30 11:33:56;;;;;;;4.30;3.77;;;23.80;16.40;;;;;;5122980;27;39433;-84
2021/05/30 11:36:32;;;;;;;4.17;3.40;;;23.70;17.20;;;;;;5099007;27;38419;-84
2021/05/30 11:39:08;;;;;;;2.40;2.20;;;23.80;16.80;;;;;;5099076;27;37414;-84
2021/05/30 11:41:37;;;;;;;2.20;2.00;;;23.50;16.70;;;;;;5112895;28;40032;-83
2021/05/30 11:44:11;;;;;;;5.37;1.97;;;23.10;16.90;;;;;;5110541;28;20571;-84
2021/05/30 11:46:48;;;;;;;3.80;1.97;;;22.70;17.40;;;;;;5108478;27;39884;-83
2021/05/30 11:49:18;;;;;;;2.23;1.80;;;22.10;17.90;;;;;;5093052;28;36261;-84
2021/05/30 11:51:57;;;;;;;2.40;2.00;;;21.80;17.80;;;;;;5110418;27;39704;-83
2021/05/30 11:54:26;;;;;;;3.27;2.13;;;21.70;18.00;;;;;;5109470;28;40217;-84
2021/05/30 11:56:58;;;;;;;3.07;2.20;;;21.70;18.70;;;;;;5106883;27;38629;-83
2021/05/30 11:59:36;;;;;;;3.07;2.47;;;21.70;18.50;;;;;;5111853;27;37426;-84
2021/05/30 12:02:04;;;;;;;2.10;1.90;;;21.70;18.70;;;;;;5109519;27;39505;-85
2021/05/30 12:04:38;;;;;;;2.40;2.00;;;21.60;17.60;;;;;;5104189;28;37791;-84
2021/05/30 12:07:09;;;;;;;4.10;2.20;;;21.80;18.20;;;;;;5108547;27;39289;-84
2021/05/30 12:09:48;;;;;;;2.53;1.87;;;21.70;17.60;;;;;;5091709;28;36360;-84
2021/05/30 12:12:24;;;;;;;5.27;1.97;;;21.70;17.40;;;;;;5108825;28;39286;-84
2021/05/30 12:14:52;;;;;;;2.17;1.90;;;21.60;17.80;;;;;;5108866;28;39267;-84
2021/05/30 12:17:20;;;;;;;2.20;2.00;;;21.60;18.00;;;;;;5107170;27;38635;-83
2021/05/30 12:19:47;;;;;;;2.43;1.93;;;21.70;17.90;;;;;;5109278;27;37980;-83
2021/05/30 12:22:25;;;;;;;2.20;1.83;;;21.40;17.70;;;;;;5107230;27;39355;-84
2021/05/30 12:24:53;;;;;;;1.90;1.70;;;21.40;18.10;;;;;;5110143;27;38891;-83
2021/05/30 12:27:21;;;;;;;3.30;2.00;;;21.60;17.70;;;;;;5091640;28;37161;-84
2021/05/30 12:29:53;;;;;;;2.53;1.80;;;21.70;17.80;;;;;;5110618;27;37101;-83
2021/05/30 12:32:24;;;;;;;9.13;7.23;;;21.60;18.50;;;;;;5106724;28;39515;-83
2021/05/30 12:34:51;;;;;;;3.63;3.23;;;21.60;19.00;;;;;;5109582;27;39129;-83
2021/05/30 12:37:38;;;;;;;3.93;1.90;;;21.80;19.00;;;;;;5081921;28;37406;-84
2021/05/30 12:40:06;;;;;;;3.43;2.10;;;21.90;19.10;;;;;;5090835;28;36685;-84
2021/05/30 12:42:33;;;;;;;4.13;2.30;;;22.10;18.60;;;;;;5109336;28;39677;-83
2021/05/30 12:45:07;;;;;;;4.00;2.53;;;22.30;18.50;;;;;;5109019;27;39157;-83
2021/05/30 12:47:43;;;;;;;2.60;2.00;;;22.60;18.10;;;;;;5088256;28;37435;-84
2021/05/30 12:50:12;;;;;;;1.60;1.50;;;22.70;17.70;;;;;;5109405;27;35714;-84
2021/05/30 12:52:45;;;;;;;6.63;1.90;;;22.70;17.50;;;;;;5115282;28;39744;-83
2021/05/30 12:55:15;;;;;;;3.10;2.50;;;22.50;17.70;;;;;;5114311;27;39710;-83
2021/05/30 12:57:45;;;;;;;3.60;2.40;;;22.30;18.20;;;;;;5117916;28;38716;-84
2021/05/30 13:00:24;;;;;;;2.20;1.97;;;22.20;18.80;;;;;;5121753;28;36974;-86
2021/05/30 13:02:57;;;;;;;2.10;1.90;;;21.90;19.20;;;;;;5114134;27;40086;-84
2021/05/30 13:05:36;;;;;;;2.80;2.13;;;21.80;18.70;;;;;;5101319;27;39523;-83
2021/05/30 13:08:17;;;;;;;3.17;2.20;;;21.90;18.40;;;;;;5113818;28;39044;-84
2021/05/30 13:10:52;;;;;;;3.23;2.03;;;22.10;18.90;;;;;;5112944;28;37048;-84
2021/05/30 13:13:28;;;;;;;3.50;1.97;;;22.00;18.40;;;;;;5087923;28;40977;-83
2021/05/30 13:15:56;;;;;;;2.37;2.17;;;21.90;18.70;;;;;;5113300;27;39978;-84
2021/05/30 13:18:25;;;;;;;2.13;1.93;;;21.90;19.00;;;;;;5113083;28;38391;-84
2021/05/30 13:20:53;;;;;;;2.37;2.13;;;21.80;20.10;;;;;;5115658;28;37263;-85
2021/05/30 13:23:27;;;;;;;3.23;2.23;;;21.60;19.50;;;;;;5100082;28;39906;-84
2021/05/30 13:26:03;;;;;;;2.47;2.27;;;21.50;20.10;;;;;;5111143;28;38213;-86
2021/05/30 13:28:38;;;;;;;2.70;1.80;;;21.30;19.90;;;;;;5090697;28;37449;-84
2021/05/30 13:31:09;;;;;;;2.50;2.17;;;21.30;20.40;;;;;;5089019;28;36393;-83
2021/05/30 13:33:39;;;;;;;3.70;1.83;;;21.50;20.40;;;;;;5094538;28;38840;-84
2021/05/30 13:36:07;;;;;;;2.90;2.60;;;21.60;19.00;;;;;;5102790;28;38159;-83
2021/05/30 13:38:36;;;;;;;3.67;2.33;;;21.90;19.30;;;;;;5102570;27;37922;-83
2021/05/30 13:41:04;;;;;;;6.73;2.70;;;21.90;19.50;;;;;;5112754;27;36293;-82
2021/05/30 13:43:31;;;;;;;4.23;2.57;;;21.70;19.60;;;;;;5105475;28;39585;-82
2021/05/30 13:45:58;;;;;;;2.97;2.20;;;21.40;19.80;;;;;;5106429;27;40342;-82
2021/05/30 13:48:25;;;;;;;2.87;2.30;;;21.20;20.50;;;;;;5112984;28;38139;-82
2021/05/30 13:51:01;;;;;;;3.40;2.53;;;21.00;20.20;;;;;;5106207;27;38315;-82